CDT,Max TemperatureF,Mean TemperatureF,Min TemperatureF,Max Dew PointF,MeanDew PointF,Min DewpointF,Max Humidity, Mean Humidity, Min Humidity, Max Sea Level PressureIn, Mean Sea Level PressureIn, Min Sea Level PressureIn, Max VisibilityMiles, Mean VisibilityMiles, Min VisibilityMiles, Max Wind SpeedMPH, Mean Wind SpeedMPH, Max Gust SpeedMPH,PrecipitationIn, CloudCover, Events, WindDirDegrees
2013-4-1,26,20,14,18,8,1,93,60,34,30.04,29.98,29.87,10,9,2,22,9,29,0.00,5,Snow,306
2013-4-2,32,22,12,14,7,3,79,52,30,30.24,30.14,30.05,10,10,10,18,8,24,0.00,1,,307
2013-4-3,39,20,1,12,4,-4,92,51,17,30.37,30.25,30.06,10,10,1,15,3,24,0.00,0,Snow,218
2013-4-4,42,35,28,28,20,14,70,54,36,30.06,29.96,29.91,10,10,10,21,11,24,0.00,3,,286
2013-4-5,37,27,17,18,12,5,86,51,26,30.21,30.13,30.06,10,10,10,6,3,,0.00,2,,4
2013-4-6,41,36,30,36,30,19,100,87,60,30.07,29.74,29.51,10,6,1,15,8,21,0.25,8,Rain-Snow,146
2013-4-7,37,34,30,32,29,27,100,88,70,29.91,29.79,29.52,10,8,2,18,9,23,0.06,6,Snow,332
2013-4-8,35,34,32,34,33,28,100,98,87,30.00,29.85,29.76,10,6,0,9,4,,0.33,8,Fog-Rain,97
2013-4-9,33,30,28,34,29,18,100,87,52,30.15,30.06,29.99,10,7,0,17,5,22,0.00,7,Fog-Rain-Snow,31
2013-4-10,39,34,28,21,17,10,74,54,33,30.15,30.09,30.03,10,10,10,16,10,23,0.00,3,,58
2013-4-11,32,29,26,27,18,5,100,63,32,30.03,29.86,29.70,10,8,0,24,14,34,0.00,6,Snow,82
2013-4-12,32,29,26,27,24,21,100,83,64,29.72,29.65,29.61,10,4,0,17,9,24,0.04,8,Snow,47
2013-4-13,32,26,17,27,23,18,100,83,60,29.92,29.76,29.67,10,8,0,14,6,20,0.05,6,Snow,310
2013-4-14,35,24,12,32,23,12,100,86,52,29.97,29.87,29.67,10,7,0,17,5,24,0.00,6,Snow,107
2013-4-15,42,37,32,36,29,21,100,81,42,29.83,29.67,29.56,10,8,1,26,7,39,0.53,8,Snow,219
2013-4-16,41,36,30,30,25,21,87,69,49,30.33,30.07,29.84,10,10,3,13,9,21,0.00,6,Snow,301
2013-4-17,39,31,23,32,26,23,100,79,60,30.35,30.21,29.96,10,10,3,15,4,20,0.00,5,Rain,91
2013-4-18,33,32,32,34,32,32,100,100,93,29.96,29.60,29.23,10,5,1,15,9,21,0.34,8,Rain-Snow,43
2013-4-19,32,26,21,32,23,14,100,87,69,29.82,29.37,29.10,10,3,0,24,13,34,0.12,8,Snow,340
2013-4-20,32,23,14,16,12,9,93,65,40,30.34,30.12,29.82,10,10,5,15,7,20,0.04,2,Snow,315
2013-4-21,35,26,17,30,23,14,93,73,60,30.38,30.28,30.13,10,10,4,16,6,31,0.02,6,Rain-Snow,166
2013-4-22,37,34,32,37,35,32,100,100,93,30.17,30.11,30.02,10,4,0,14,6,18,0.49,8,Rain-Snow,45
2013-4-23,33,28,23,32,29,21,100,92,64,30.02,29.94,29.88,10,6,1,15,8,22,0.29,6,Snow,353
2013-4-24,42,30,17,32,21,16,100,69,39,29.96,29.90,29.85,10,10,1,18,4,24,0.00,2,Snow,261
2013-4-25,42,36,30,32,26,18,100,71,36,30.17,30.03,29.85,10,10,1,15,6,21,0.07,5,Snow,271
2013-4-26,60,45,30,34,31,23,100,66,36,30.17,30.10,30.04,10,10,3,16,4,24,0.06,2,Rain,207
2013-4-27,66,48,30,41,35,30,100,63,28,30.14,30.07,29.97,10,10,7,14,3,18,0.00,2,,216
2013-4-28,68,50,33,43,37,34,100,58,28,29.96,29.85,29.75,10,10,2,15,5,23,0.00,1,Rain,195
2013-4-29,69,56,44,55,48,43,100,83,38,29.81,29.76,29.70,10,5,0,13,3,21,0.30,6,Fog-Rain,160
2013-4-30,80,65,50,55,48,36,100,63,24,29.94,29.67,29.55,10,8,2,20,8,29,0.09,3,Rain,190